sensor_id;sensor_type;location;lat;lon;timestamp;P1;durP1;ratioP1;P2;durP2;ratioP2
20727;SDS011;10525;50.154;8.198;2023-02-27T00:01:29;2.30;;;1.40;;
20727;SDS011;10525;50.154;8.198;2023-02-27T00:03:57;4.30;;;1.70;;
20727;SDS011;10525;50.154;8.198;2023-02-27T00:06:24;1.50;;;1.40;;
20727;SDS011;10525;50.154;8.198;2023-02-27T00:08:51;1.20;;;1.20;;
20727;SDS011;10525;50.154;8.198;2023-02-27T00:11:18;5.20;;;1.50;;
20727;SDS011;10525;50.154;8.198;2023-02-27T00:13:46;1.30;;;1.30;;
20727;SDS011;10525;50.154;8.198;2023-02-27T00:16:13;1.20;;;1.20;;
20727;SDS011;10525;50.154;8.198;2023-02-27T00:18:40;3.47;;;1.23;;
20727;SDS011;10525;50.154;8.198;2023-02-27T00:21:06;2.00;;;1.50;;
20727;SDS011;10525;50.154;8.198;2023-02-27T00:23:33;1.40;;;1.30;;
20727;SDS011;10525;50.154;8.198;2023-02-27T00:26:00;2.33;;;1.33;;
20727;SDS011;10525;50.154;8.198;2023-02-27T00:28:27;2.73;;;1.30;;
20727;SDS011;10525;50.154;8.198;2023-02-27T00:30:55;1.70;;;1.50;;
20727;SDS011;10525;50.154;8.198;2023-02-27T00:33:22;1.33;;;1.33;;
20727;SDS011;10525;50.154;8.198;2023-02-27T00:35:53;1.30;;;1.30;;
20727;SDS011;10525;50.154;8.198;2023-02-27T00:38:21;1.70;;;1.60;;
20727;SDS011;10525;50.154;8.198;2023-02-27T00:40:47;1.53;;;1.53;;
20727;SDS011;10525;50.154;8.198;2023-02-27T00:43:14;1.63;;;1.50;;
20727;SDS011;10525;50.154;8.198;2023-02-27T00:45:41;2.00;;;1.90;;
20727;SDS011;10525;50.154;8.198;2023-02-27T00:48:09;2.30;;;1.40;;
20727;SDS011;10525;50.154;8.198;2023-02-27T00:50:36;4.53;;;1.27;;
20727;SDS011;10525;50.154;8.198;2023-02-27T00:53:03;1.50;;;1.40;;
20727;SDS011;10525;50.154;8.198;2023-02-27T00:55:30;1.23;;;1.23;;
20727;SDS011;10525;50.154;8.198;2023-02-27T00:57:57;3.30;;;1.50;;
20727;SDS011;10525;50.154;8.198;2023-02-27T01:00:24;1.77;;;1.67;;
20727;SDS011;10525;50.154;8.198;2023-02-27T01:02:51;5.60;;;1.50;;
20727;SDS011;10525;50.154;8.198;2023-02-27T01:05:19;1.40;;;1.40;;
20727;SDS011;10525;50.154;8.198;2023-02-27T01:07:46;2.27;;;2.03;;
20727;SDS011;10525;50.154;8.198;2023-02-27T01:10:13;3.73;;;1.70;;
20727;SDS011;10525;50.154;8.198;2023-02-27T01:12:40;2.10;;;1.20;;
20727;SDS011;10525;50.154;8.198;2023-02-27T01:15:08;1.73;;;1.73;;
20727;SDS011;10525;50.154;8.198;2023-02-27T01:17:35;3.50;;;1.67;;
20727;SDS011;10525;50.154;8.198;2023-02-27T01:20:03;2.33;;;1.53;;
20727;SDS011;10525;50.154;8.198;2023-02-27T01:22:32;1.60;;;1.23;;
20727;SDS011;10525;50.154;8.198;2023-02-27T01:24:59;2.07;;;1.40;;
20727;SDS011;10525;50.154;8.198;2023-02-27T01:27:27;1.30;;;1.30;;
20727;SDS011;10525;50.154;8.198;2023-02-27T01:29:54;1.57;;;1.57;;
20727;SDS011;10525;50.154;8.198;2023-02-27T01:32:21;1.73;;;1.63;;
20727;SDS011;10525;50.154;8.198;2023-02-27T01:34:47;4.43;;;1.97;;
20727;SDS011;10525;50.154;8.198;2023-02-27T01:37:14;3.53;;;1.97;;
20727;SDS011;10525;50.154;8.198;2023-02-27T01:39:44;6.33;;;1.50;;
20727;SDS011;10525;50.154;8.198;2023-02-27T01:42:16;2.10;;;1.60;;
20727;SDS011;10525;50.154;8.198;2023-02-27T01:45:06;1.40;;;1.40;;
20727;SDS011;10525;50.154;8.198;2023-02-27T01:47:57;1.43;;;1.43;;
20727;SDS011;10525;50.154;8.198;2023-02-27T01:50:31;2.20;;;1.50;;
20727;SDS011;10525;50.154;8.198;2023-02-27T01:52:59;1.43;;;1.40;;
20727;SDS011;10525;50.154;8.198;2023-02-27T01:55:28;3.27;;;1.60;;
20727;SDS011;10525;50.154;8.198;2023-02-27T01:57:58;1.20;;;1.20;;
20727;SDS011;10525;50.154;8.198;2023-02-27T02:00:25;1.50;;;1.40;;
20727;SDS011;10525;50.154;8.198;2023-02-27T02:02:54;1.87;;;1.43;;
20727;SDS011;10525;50.154;8.198;2023-02-27T02:05:25;1.20;;;1.20;;
20727;SDS011;10525;50.154;8.198;2023-02-27T02:07:54;3.60;;;1.67;;
20727;SDS011;10525;50.154;8.198;2023-02-27T02:10:21;5.67;;;1.80;;
20727;SDS011;10525;50.154;8.198;2023-02-27T02:12:50;1.17;;;1.17;;
20727;SDS011;10525;50.154;8.198;2023-02-27T02:15:18;4.87;;;1.40;;
20727;SDS011;10525;50.154;8.198;2023-02-27T02:17:51;3.10;;;1.20;;
20727;SDS011;10525;50.154;8.198;2023-02-27T02:20:37;3.40;;;1.60;;
20727;SDS011;10525;50.154;8.198;2023-02-27T02:23:34;1.13;;;1.13;;
20727;SDS011;10525;50.154;8.198;2023-02-27T02:26:26;5.37;;;1.50;;
20727;SDS011;10525;50.154;8.198;2023-02-27T02:32:20;2.00;;;1.27;;
20727;SDS011;10525;50.154;8.198;2023-02-27T02:35:24;2.00;;;1.33;;
20727;SDS011;10525;50.154;8.198;2023-02-27T02:41:17;5.80;;;1.70;;
20727;SDS011;10525;50.154;8.198;2023-02-27T02:43:54;1.70;;;1.60;;
20727;SDS011;10525;50.154;8.198;2023-02-27T02:46:29;3.73;;;1.37;;
20727;SDS011;10525;50.154;8.198;2023-02-27T02:49:02;1.37;;;1.37;;
20727;SDS011;10525;50.154;8.198;2023-02-27T02:51:36;1.33;;;1.33;;
20727;SDS011;10525;50.154;8.198;2023-02-27T02:54:10;3.20;;;1.27;;
20727;SDS011;10525;50.154;8.198;2023-02-27T02:56:43;1.20;;;1.20;;
20727;SDS011;10525;50.154;8.198;2023-02-27T02:59:14;1.30;;;1.30;;
20727;SDS011;10525;50.154;8.198;2023-02-27T03:01:47;1.30;;;1.30;;
20727;SDS011;10525;50.154;8.198;2023-02-27T03:04:18;1.20;;;1.20;;
20727;SDS011;10525;50.154;8.198;2023-02-27T03:06:53;3.13;;;1.27;;
20727;SDS011;10525;50.154;8.198;2023-02-27T03:09:27;1.37;;;1.30;;
20727;SDS011;10525;50.154;8.198;2023-02-27T03:11:59;5.93;;;1.50;;
20727;SDS011;10525;50.154;8.198;2023-02-27T03:14:29;1.30;;;1.30;;
20727;SDS011;10525;50.154;8.198;2023-02-27T03:17:01;6.03;;;1.47;;
20727;SDS011;10525;50.154;8.198;2023-02-27T03:19:32;1.33;;;1.33;;
20727;SDS011;10525;50.154;8.198;2023-02-27T03:22:04;1.23;;;1.23;;
20727;SDS011;10525;50.154;8.198;2023-02-27T03:24:37;1.43;;;1.30;;
20727;SDS011;10525;50.154;8.198;2023-02-27T03:27:07;1.30;;;1.30;;
20727;SDS011;10525;50.154;8.198;2023-02-27T03:29:36;3.00;;;1.40;;
20727;SDS011;10525;50.154;8.198;2023-02-27T03:32:08;1.60;;;1.50;;
20727;SDS011;10525;50.154;8.198;2023-02-27T03:34:39;2.40;;;1.43;;
20727;SDS011;10525;50.154;8.198;2023-02-27T03:37:10;4.20;;;1.77;;
20727;SDS011;10525;50.154;8.198;2023-02-27T03:39:47;2.30;;;1.70;;
20727;SDS011;10525;50.154;8.198;2023-02-27T03:42:17;2.10;;;1.40;;
20727;SDS011;10525;50.154;8.198;2023-02-27T03:44:52;1.80;;;1.70;;
20727;SDS011;10525;50.154;8.198;2023-02-27T03:47:26;1.70;;;1.60;;
20727;SDS011;10525;50.154;8.198;2023-02-27T03:49:53;1.47;;;1.43;;
20727;SDS011;10525;50.154;8.198;2023-02-27T03:52:20;1.23;;;1.23;;
20727;SDS011;10525;50.154;8.198;2023-02-27T03:54:52;2.07;;;1.40;;
20727;SDS011;10525;50.154;8.198;2023-02-27T03:57:22;1.13;;;1.13;;
20727;SDS011;10525;50.154;8.198;2023-02-27T03:59:50;1.30;;;1.30;;
20727;SDS011;10525;50.154;8.198;2023-02-27T04:02:17;1.63;;;1.53;;
20727;SDS011;10525;50.154;8.198;2023-02-27T04:04:45;1.47;;;1.43;;
20727;SDS011;10525;50.154;8.198;2023-02-27T04:07:14;5.67;;;1.80;;
20727;SDS011;10525;50.154;8.198;2023-02-27T04:09:57;1.50;;;1.43;;
20727;SDS011;10525;50.154;8.198;2023-02-27T04:12:39;1.53;;;1.40;;
20727;SDS011;10525;50.154;8.198;2023-02-27T04:15:22;1.40;;;1.40;;
20727;SDS011;10525;50.154;8.198;2023-02-27T04:17:57;2.23;;;1.30;;
20727;SDS011;10525;50.154;8.198;2023-02-27T04:20:38;1.53;;;1.27;;
20727;SDS011;10525;50.154;8.198;2023-02-27T04:23:09;1.57;;;1.53;;
20727;SDS011;10525;50.154;8.198;2023-02-27T04:25:55;2.57;;;1.33;;
20727;SDS011;10525;50.154;8.198;2023-02-27T04:28:35;1.40;;;1.40;;
20727;SDS011;10525;50.154;8.198;2023-02-27T04:31:09;1.37;;;1.37;;
20727;SDS011;10525;50.154;8.198;2023-02-27T04:33:43;7.60;;;1.57;;
20727;SDS011;10525;50.154;8.198;2023-02-27T04:36:15;2.83;;;1.30;;
20727;SDS011;10525;50.154;8.198;2023-02-27T04:38:50;1.80;;;1.70;;
20727;SDS011;10525;50.154;8.198;2023-02-27T04:41:23;1.30;;;1.30;;
20727;SDS011;10525;50.154;8.198;2023-02-27T04:43:52;1.57;;;1.30;;
20727;SDS011;10525;50.154;8.198;2023-02-27T04:46:21;1.30;;;1.30;;
20727;SDS011;10525;50.154;8.198;2023-02-27T04:48:53;4.90;;;1.53;;
20727;SDS011;10525;50.154;8.198;2023-02-27T04:51:24;1.80;;;1.70;;
20727;SDS011;10525;50.154;8.198;2023-02-27T04:53:55;4.00;;;1.70;;
20727;SDS011;10525;50.154;8.198;2023-02-27T04:56:28;1.83;;;1.40;;
20727;SDS011;10525;50.154;8.198;2023-02-27T04:58:59;2.20;;;1.83;;
20727;SDS011;10525;50.154;8.198;2023-02-27T05:01:33;1.60;;;1.57;;
20727;SDS011;10525;50.154;8.198;2023-02-27T05:04:02;1.30;;;1.27;;
20727;SDS011;10525;50.154;8.198;2023-02-27T05:06:33;4.63;;;1.70;;
20727;SDS011;10525;50.154;8.198;2023-02-27T05:09:05;2.70;;;1.60;;
20727;SDS011;10525;50.154;8.198;2023-02-27T05:11:40;1.60;;;1.60;;
20727;SDS011;10525;50.154;8.198;2023-02-27T05:14:12;1.87;;;1.57;;
20727;SDS011;10525;50.154;8.198;2023-02-27T05:16:43;1.83;;;1.57;;
20727;SDS011;10525;50.154;8.198;2023-02-27T05:19:15;1.30;;;1.30;;
20727;SDS011;10525;50.154;8.198;2023-02-27T05:21:45;1.80;;;1.70;;
20727;SDS011;10525;50.154;8.198;2023-02-27T05:24:21;1.50;;;1.40;;
20727;SDS011;10525;50.154;8.198;2023-02-27T05:27:02;2.67;;;1.80;;
20727;SDS011;10525;50.154;8.198;2023-02-27T05:29:40;3.37;;;1.77;;
20727;SDS011;10525;50.154;8.198;2023-02-27T05:32:13;6.00;;;2.20;;
20727;SDS011;10525;50.154;8.198;2023-02-27T05:34:50;5.10;;;1.97;;
20727;SDS011;10525;50.154;8.198;2023-02-27T05:37:21;2.73;;;1.80;;
20727;SDS011;10525;50.154;8.198;2023-02-27T05:39:52;1.93;;;1.33;;
20727;SDS011;10525;50.154;8.198;2023-02-27T05:42:21;1.73;;;1.63;;
20727;SDS011;10525;50.154;8.198;2023-02-27T05:44:53;2.10;;;1.33;;
20727;SDS011;10525;50.154;8.198;2023-02-27T05:47:22;1.40;;;1.40;;
20727;SDS011;10525;50.154;8.198;2023-02-27T05:49:53;1.70;;;1.60;;
20727;SDS011;10525;50.154;8.198;2023-02-27T05:52:25;1.50;;;1.50;;
20727;SDS011;10525;50.154;8.198;2023-02-27T05:54:54;10.97;;;2.07;;
20727;SDS011;10525;50.154;8.198;2023-02-27T05:57:27;3.50;;;1.30;;
20727;SDS011;10525;50.154;8.198;2023-02-27T05:59:58;1.73;;;1.67;;
20727;SDS011;10525;50.154;8.198;2023-02-27T06:02:28;1.80;;;1.67;;
20727;SDS011;10525;50.154;8.198;2023-02-27T06:04:55;2.83;;;1.73;;
20727;SDS011;10525;50.154;8.198;2023-02-27T06:07:22;1.60;;;1.60;;
20727;SDS011;10525;50.154;8.198;2023-02-27T06:09:48;1.77;;;1.77;;
20727;SDS011;10525;50.154;8.198;2023-02-27T06:12:15;1.50;;;1.50;;
20727;SDS011;10525;50.154;8.198;2023-02-27T06:14:44;1.87;;;1.87;;
20727;SDS011;10525;50.154;8.198;2023-02-27T06:17:11;1.60;;;1.60;;
20727;SDS011;10525;50.154;8.198;2023-02-27T06:19:37;4.03;;;1.70;;
20727;SDS011;10525;50.154;8.198;2023-02-27T06:22:04;1.90;;;1.90;;
20727;SDS011;10525;50.154;8.198;2023-02-27T06:24:31;1.50;;;1.50;;
20727;SDS011;10525;50.154;8.198;2023-02-27T06:26:57;4.07;;;2.00;;
20727;SDS011;10525;50.154;8.198;2023-02-27T06:29:24;1.90;;;1.83;;
20727;SDS011;10525;50.154;8.198;2023-02-27T06:31:52;1.80;;;1.40;;
20727;SDS011;10525;50.154;8.198;2023-02-27T06:34:19;1.73;;;1.63;;
20727;SDS011;10525;50.154;8.198;2023-02-27T06:36:45;5.93;;;2.10;;
20727;SDS011;10525;50.154;8.198;2023-02-27T06:39:12;2.17;;;1.67;;
20727;SDS011;10525;50.154;8.198;2023-02-27T06:41:39;5.80;;;2.00;;
20727;SDS011;10525;50.154;8.198;2023-02-27T06:44:06;1.63;;;1.63;;
20727;SDS011;10525;50.154;8.198;2023-02-27T06:46:33;2.57;;;1.53;;
20727;SDS011;10525;50.154;8.198;2023-02-27T06:49:01;2.30;;;1.77;;
20727;SDS011;10525;50.154;8.198;2023-02-27T06:51:28;2.03;;;2.00;;
20727;SDS011;10525;50.154;8.198;2023-02-27T06:53:54;2.00;;;1.90;;
20727;SDS011;10525;50.154;8.198;2023-02-27T06:56:21;2.10;;;2.00;;
20727;SDS011;10525;50.154;8.198;2023-02-27T06:58:48;1.83;;;1.70;;
20727;SDS011;10525;50.154;8.198;2023-02-27T07:01:14;2.03;;;1.90;;
20727;SDS011;10525;50.154;8.198;2023-02-27T07:03:42;1.90;;;1.90;;
20727;SDS011;10525;50.154;8.198;2023-02-27T07:06:10;1.60;;;1.60;;
20727;SDS011;10525;50.154;8.198;2023-02-27T07:08:37;2.20;;;1.70;;
20727;SDS011;10525;50.154;8.198;2023-02-27T07:11:04;1.47;;;1.40;;
20727;SDS011;10525;50.154;8.198;2023-02-27T07:13:30;2.07;;;1.87;;
20727;SDS011;10525;50.154;8.198;2023-02-27T07:15:57;4.40;;;1.90;;
20727;SDS011;10525;50.154;8.198;2023-02-27T07:18:24;2.23;;;2.10;;
20727;SDS011;10525;50.154;8.198;2023-02-27T07:20:51;1.60;;;1.60;;
20727;SDS011;10525;50.154;8.198;2023-02-27T07:23:20;2.00;;;2.00;;
20727;SDS011;10525;50.154;8.198;2023-02-27T07:25:47;2.07;;;1.97;;
20727;SDS011;10525;50.154;8.198;2023-02-27T07:28:14;2.50;;;2.40;;
20727;SDS011;10525;50.154;8.198;2023-02-27T07:30:41;2.50;;;2.47;;
20727;SDS011;10525;50.154;8.198;2023-02-27T07:33:08;2.30;;;2.20;;
20727;SDS011;10525;50.154;8.198;2023-02-27T07:35:35;1.83;;;1.73;;
20727;SDS011;10525;50.154;8.198;2023-02-27T07:38:01;2.20;;;1.80;;
20727;SDS011;10525;50.154;8.198;2023-02-27T07:40:29;1.73;;;1.70;;
20727;SDS011;10525;50.154;8.198;2023-02-27T07:42:56;5.70;;;2.30;;
20727;SDS011;10525;50.154;8.198;2023-02-27T07:45:23;1.37;;;1.37;;
20727;SDS011;10525;50.154;8.198;2023-02-27T07:47:49;1.97;;;1.87;;
20727;SDS011;10525;50.154;8.198;2023-02-27T07:50:16;4.20;;;1.93;;
20727;SDS011;10525;50.154;8.198;2023-02-27T07:52:43;2.00;;;1.80;;
20727;SDS011;10525;50.154;8.198;2023-02-27T07:55:10;2.20;;;2.10;;
20727;SDS011;10525;50.154;8.198;2023-02-27T07:57:39;2.10;;;2.00;;
20727;SDS011;10525;50.154;8.198;2023-02-27T08:00:06;2.27;;;2.00;;
20727;SDS011;10525;50.154;8.198;2023-02-27T08:02:34;2.10;;;2.00;;
20727;SDS011;10525;50.154;8.198;2023-02-27T08:05:01;3.60;;;2.00;;
20727;SDS011;10525;50.154;8.198;2023-02-27T08:07:27;2.13;;;2.03;;
20727;SDS011;10525;50.154;8.198;2023-02-27T08:09:54;5.27;;;2.27;;
20727;SDS011;10525;50.154;8.198;2023-02-27T08:12:21;2.43;;;2.00;;
20727;SDS011;10525;50.154;8.198;2023-02-27T08:14:49;11.60;;;2.03;;
20727;SDS011;10525;50.154;8.198;2023-02-27T08:17:15;1.87;;;1.67;;
20727;SDS011;10525;50.154;8.198;2023-02-27T08:19:42;3.07;;;1.90;;
20727;SDS011;10525;50.154;8.198;2023-02-27T08:22:09;1.70;;;1.60;;
20727;SDS011;10525;50.154;8.198;2023-02-27T08:24:36;4.27;;;1.90;;
20727;SDS011;10525;50.154;8.198;2023-02-27T08:27:04;2.17;;;1.33;;
20727;SDS011;10525;50.154;8.198;2023-02-27T08:29:31;1.90;;;1.80;;
20727;SDS011;10525;50.154;8.198;2023-02-27T08:31:59;5.23;;;1.70;;
20727;SDS011;10525;50.154;8.198;2023-02-27T08:34:27;1.40;;;1.40;;
20727;SDS011;10525;50.154;8.198;2023-02-27T08:36:54;1.73;;;1.67;;
20727;SDS011;10525;50.154;8.198;2023-02-27T08:39:20;1.50;;;1.50;;
20727;SDS011;10525;50.154;8.198;2023-02-27T08:41:48;1.97;;;1.60;;
20727;SDS011;10525;50.154;8.198;2023-02-27T08:44:20;2.10;;;1.87;;
20727;SDS011;10525;50.154;8.198;2023-02-27T08:46:47;1.20;;;1.20;;
20727;SDS011;10525;50.154;8.198;2023-02-27T08:49:15;2.87;;;1.47;;
20727;SDS011;10525;50.154;8.198;2023-02-27T08:51:42;6.50;;;1.40;;
20727;SDS011;10525;50.154;8.198;2023-02-27T08:54:09;1.80;;;1.63;;
20727;SDS011;10525;50.154;8.198;2023-02-27T08:56:35;1.23;;;1.23;;
20727;SDS011;10525;50.154;8.198;2023-02-27T08:59:02;2.10;;;1.83;;
20727;SDS011;10525;50.154;8.198;2023-02-27T09:01:28;1.77;;;1.57;;
20727;SDS011;10525;50.154;8.198;2023-02-27T09:03:58;2.67;;;1.70;;
20727;SDS011;10525;50.154;8.198;2023-02-27T09:06:27;1.53;;;1.53;;
20727;SDS011;10525;50.154;8.198;2023-02-27T09:08:55;1.80;;;1.80;;
20727;SDS011;10525;50.154;8.198;2023-02-27T09:11:22;2.10;;;1.70;;
20727;SDS011;10525;50.154;8.198;2023-02-27T09:13:49;1.37;;;1.37;;
20727;SDS011;10525;50.154;8.198;2023-02-27T09:16:16;1.70;;;1.60;;
20727;SDS011;10525;50.154;8.198;2023-02-27T09:18:43;1.63;;;1.63;;
20727;SDS011;10525;50.154;8.198;2023-02-27T09:21:10;1.97;;;1.87;;
20727;SDS011;10525;50.154;8.198;2023-02-27T09:23:38;1.83;;;1.83;;
20727;SDS011;10525;50.154;8.198;2023-02-27T09:26:05;1.80;;;1.70;;
20727;SDS011;10525;50.154;8.198;2023-02-27T09:28:33;4.20;;;2.10;;
20727;SDS011;10525;50.154;8.198;2023-02-27T09:31:00;1.90;;;1.90;;
20727;SDS011;10525;50.154;8.198;2023-02-27T09:33:26;1.87;;;1.77;;
20727;SDS011;10525;50.154;8.198;2023-02-27T09:35:53;2.33;;;2.20;;
20727;SDS011;10525;50.154;8.198;2023-02-27T09:38:20;1.50;;;1.50;;
20727;SDS011;10525;50.154;8.198;2023-02-27T09:40:48;5.80;;;1.87;;
20727;SDS011;10525;50.154;8.198;2023-02-27T09:43:18;1.90;;;1.90;;
20727;SDS011;10525;50.154;8.198;2023-02-27T09:45:49;2.20;;;2.10;;
20727;SDS011;10525;50.154;8.198;2023-02-27T09:48:22;1.53;;;1.53;;
20727;SDS011;10525;50.154;8.198;2023-02-27T09:50:54;1.60;;;1.60;;
20727;SDS011;10525;50.154;8.198;2023-02-27T09:53:23;1.73;;;1.63;;
20727;SDS011;10525;50.154;8.198;2023-02-27T09:55:53;1.77;;;1.70;;
20727;SDS011;10525;50.154;8.198;2023-02-27T09:58:36;1.60;;;1.50;;
20727;SDS011;10525;50.154;8.198;2023-02-27T10:01:12;1.20;;;1.20;;
20727;SDS011;10525;50.154;8.198;2023-02-27T10:06:35;1.40;;;1.40;;
20727;SDS011;10525;50.154;8.198;2023-02-27T10:09:11;1.60;;;1.60;;
20727;SDS011;10525;50.154;8.198;2023-02-27T10:11:54;2.17;;;1.60;;
20727;SDS011;10525;50.154;8.198;2023-02-27T10:14:33;1.53;;;1.53;;
20727;SDS011;10525;50.154;8.198;2023-02-27T10:17:05;1.20;;;1.20;;
20727;SDS011;10525;50.154;8.198;2023-02-27T10:19:39;1.30;;;1.30;;
20727;SDS011;10525;50.154;8.198;2023-02-27T10:22:11;1.90;;;1.80;;
20727;SDS011;10525;50.154;8.198;2023-02-27T10:24:43;1.50;;;1.50;;
20727;SDS011;10525;50.154;8.198;2023-02-27T10:27:16;1.30;;;1.30;;
20727;SDS011;10525;50.154;8.198;2023-02-27T10:29:45;1.60;;;1.60;;
20727;SDS011;10525;50.154;8.198;2023-02-27T10:32:12;1.40;;;1.40;;
20727;SDS011;10525;50.154;8.198;2023-02-27T10:34:44;1.57;;;1.57;;
20727;SDS011;10525;50.154;8.198;2023-02-27T10:37:15;1.30;;;1.30;;
20727;SDS011;10525;50.154;8.198;2023-02-27T10:39:46;3.47;;;1.63;;
20727;SDS011;10525;50.154;8.198;2023-02-27T10:42:18;1.77;;;1.67;;
20727;SDS011;10525;50.154;8.198;2023-02-27T10:44:45;1.77;;;1.67;;
20727;SDS011;10525;50.154;8.198;2023-02-27T10:47:17;1.63;;;1.37;;
20727;SDS011;10525;50.154;8.198;2023-02-27T10:49:47;1.07;;;1.07;;
20727;SDS011;10525;50.154;8.198;2023-02-27T10:52:14;1.23;;;1.23;;
20727;SDS011;10525;50.154;8.198;2023-02-27T10:54:42;5.50;;;1.50;;
20727;SDS011;10525;50.154;8.198;2023-02-27T10:57:25;3.50;;;1.50;;
20727;SDS011;10525;50.154;8.198;2023-02-27T10:59:56;1.37;;;1.37;;
20727;SDS011;10525;50.154;8.198;2023-02-27T11:02:25;1.53;;;1.43;;
20727;SDS011;10525;50.154;8.198;2023-02-27T11:05:01;1.50;;;1.27;;
20727;SDS011;10525;50.154;8.198;2023-02-27T11:07:30;1.07;;;1.07;;
20727;SDS011;10525;50.154;8.198;2023-02-27T11:10:03;1.43;;;1.43;;
20727;SDS011;10525;50.154;8.198;2023-02-27T11:12:43;2.67;;;1.30;;
20727;SDS011;10525;50.154;8.198;2023-02-27T11:15:24;1.10;;;1.10;;
20727;SDS011;10525;50.154;8.198;2023-02-27T11:17:52;1.57;;;1.47;;
20727;SDS011;10525;50.154;8.198;2023-02-27T11:20:30;1.30;;;1.30;;
20727;SDS011;10525;50.154;8.198;2023-02-27T11:23:01;2.60;;;1.57;;
20727;SDS011;10525;50.154;8.198;2023-02-27T11:25:29;1.40;;;1.40;;
20727;SDS011;10525;50.154;8.198;2023-02-27T11:28:01;1.30;;;1.20;;
20727;SDS011;10525;50.154;8.198;2023-02-27T11:30:40;1.33;;;1.27;;
20727;SDS011;10525;50.154;8.198;2023-02-27T11:33:09;1.90;;;1.20;;
20727;SDS011;10525;50.154;8.198;2023-02-27T11:35:47;1.50;;;1.00;;
20727;SDS011;10525;50.154;8.198;2023-02-27T11:38:18;1.43;;;1.27;;
20727;SDS011;10525;50.154;8.198;2023-02-27T11:40:48;2.40;;;1.60;;
20727;SDS011;10525;50.154;8.198;2023-02-27T11:43:18;1.30;;;1.20;;
20727;SDS011;10525;50.154;8.198;2023-02-27T11:45:48;1.50;;;1.40;;
20727;SDS011;10525;50.154;8.198;2023-02-27T11:48:18;2.77;;;1.07;;
20727;SDS011;10525;50.154;8.198;2023-02-27T11:50:51;1.20;;;1.20;;
20727;SDS011;10525;50.154;8.198;2023-02-27T11:53:33;1.87;;;1.73;;
20727;SDS011;10525;50.154;8.198;2023-02-27T11:56:09;1.30;;;1.20;;
20727;SDS011;10525;50.154;8.198;2023-02-27T11:58:44;1.13;;;1.13;;
20727;SDS011;10525;50.154;8.198;2023-02-27T12:01:17;1.20;;;1.20;;
20727;SDS011;10525;50.154;8.198;2023-02-27T12:03:49;1.00;;;1.00;;
20727;SDS011;10525;50.154;8.198;2023-02-27T12:06:22;1.20;;;1.10;;
20727;SDS011;10525;50.154;8.198;2023-02-27T12:08:54;2.40;;;1.20;;
20727;SDS011;10525;50.154;8.198;2023-02-27T12:11:24;1.37;;;1.37;;
20727;SDS011;10525;50.154;8.198;2023-02-27T12:13:57;1.20;;;1.20;;
20727;SDS011;10525;50.154;8.198;2023-02-27T12:16:28;1.43;;;1.43;;
20727;SDS011;10525;50.154;8.198;2023-02-27T12:19:01;1.10;;;1.10;;
20727;SDS011;10525;50.154;8.198;2023-02-27T12:21:35;1.33;;;1.33;;
20727;SDS011;10525;50.154;8.198;2023-02-27T12:24:06;2.40;;;1.30;;
20727;SDS011;10525;50.154;8.198;2023-02-27T12:26:39;1.40;;;1.30;;
20727;SDS011;10525;50.154;8.198;2023-02-27T12:29:12;3.70;;;1.20;;
20727;SDS011;10525;50.154;8.198;2023-02-27T12:31:47;1.00;;;1.00;;
20727;SDS011;10525;50.154;8.198;2023-02-27T12:34:24;1.43;;;1.20;;
20727;SDS011;10525;50.154;8.198;2023-02-27T12:36:53;1.00;;;1.00;;
20727;SDS011;10525;50.154;8.198;2023-02-27T12:39:25;1.10;;;1.10;;
20727;SDS011;10525;50.154;8.198;2023-02-27T12:42:01;0.87;;;0.87;;
20727;SDS011;10525;50.154;8.198;2023-02-27T12:44:54;1.30;;;1.20;;
20727;SDS011;10525;50.154;8.198;2023-02-27T12:47:34;1.10;;;1.10;;
20727;SDS011;10525;50.154;8.198;2023-02-27T12:50:09;1.03;;;1.03;;
20727;SDS011;10525;50.154;8.198;2023-02-27T12:52:43;1.80;;;1.00;;
20727;SDS011;10525;50.154;8.198;2023-02-27T12:55:22;1.40;;;1.30;;
20727;SDS011;10525;50.154;8.198;2023-02-27T12:57:57;1.10;;;1.10;;
20727;SDS011;10525;50.154;8.198;2023-02-27T13:00:44;1.07;;;1.07;;
20727;SDS011;10525;50.154;8.198;2023-02-27T13:03:14;1.03;;;1.03;;
20727;SDS011;10525;50.154;8.198;2023-02-27T13:05:46;5.13;;;1.60;;
20727;SDS011;10525;50.154;8.198;2023-02-27T13:08:29;1.57;;;1.00;;
20727;SDS011;10525;50.154;8.198;2023-02-27T13:11:16;1.40;;;0.87;;
20727;SDS011;10525;50.154;8.198;2023-02-27T13:13:51;0.80;;;0.80;;
20727;SDS011;10525;50.154;8.198;2023-02-27T13:16:25;0.97;;;0.97;;
20727;SDS011;10525;50.154;8.198;2023-02-27T13:18:57;0.90;;;0.90;;
20727;SDS011;10525;50.154;8.198;2023-02-27T13:21:30;1.00;;;1.00;;
20727;SDS011;10525;50.154;8.198;2023-02-27T13:24:04;1.30;;;0.90;;
20727;SDS011;10525;50.154;8.198;2023-02-27T13:26:45;0.93;;;0.90;;
20727;SDS011;10525;50.154;8.198;2023-02-27T13:29:16;1.00;;;1.00;;
20727;SDS011;10525;50.154;8.198;2023-02-27T13:31:46;0.93;;;0.93;;
20727;SDS011;10525;50.154;8.198;2023-02-27T13:34:19;1.10;;;1.10;;
20727;SDS011;10525;50.154;8.198;2023-02-27T13:36:52;1.57;;;1.47;;
20727;SDS011;10525;50.154;8.198;2023-02-27T13:39:50;1.20;;;1.20;;
20727;SDS011;10525;50.154;8.198;2023-02-27T13:54:07;0.80;;;0.80;;
20727;SDS011;10525;50.154;8.198;2023-02-27T13:56:45;1.00;;;1.00;;
20727;SDS011;10525;50.154;8.198;2023-02-27T13:59:17;0.90;;;0.90;;
20727;SDS011;10525;50.154;8.198;2023-02-27T14:01:48;0.80;;;0.80;;
20727;SDS011;10525;50.154;8.198;2023-02-27T14:04:18;0.90;;;0.90;;
20727;SDS011;10525;50.154;8.198;2023-02-27T14:06:46;2.13;;;0.93;;
20727;SDS011;10525;50.154;8.198;2023-02-27T14:09:16;0.90;;;0.90;;
20727;SDS011;10525;50.154;8.198;2023-02-27T14:11:52;1.00;;;1.00;;
20727;SDS011;10525;50.154;8.198;2023-02-27T14:14:35;0.80;;;0.80;;
20727;SDS011;10525;50.154;8.198;2023-02-27T14:17:05;0.85;;;0.85;;
20727;SDS011;10525;50.154;8.198;2023-02-27T14:19:44;1.70;;;0.90;;
20727;SDS011;10525;50.154;8.198;2023-02-27T14:25:31;1.00;;;1.00;;
20727;SDS011;10525;50.154;8.198;2023-02-27T14:28:00;0.90;;;0.90;;
20727;SDS011;10525;50.154;8.198;2023-02-27T14:30:29;1.13;;;1.13;;
20727;SDS011;10525;50.154;8.198;2023-02-27T14:33:00;0.90;;;0.90;;
20727;SDS011;10525;50.154;8.198;2023-02-27T14:35:45;0.77;;;0.77;;
20727;SDS011;10525;50.154;8.198;2023-02-27T14:38:18;1.00;;;1.00;;
20727;SDS011;10525;50.154;8.198;2023-02-27T14:40:48;1.30;;;0.90;;
20727;SDS011;10525;50.154;8.198;2023-02-27T14:43:25;1.80;;;1.00;;
20727;SDS011;10525;50.154;8.198;2023-02-27T14:46:04;1.80;;;0.90;;
20727;SDS011;10525;50.154;8.198;2023-02-27T14:48:35;1.00;;;1.00;;
20727;SDS011;10525;50.154;8.198;2023-02-27T14:51:04;0.90;;;0.90;;
20727;SDS011;10525;50.154;8.198;2023-02-27T14:53:31;1.20;;;1.20;;
20727;SDS011;10525;50.154;8.198;2023-02-27T14:55:58;1.00;;;1.00;;
20727;SDS011;10525;50.154;8.198;2023-02-27T14:58:25;0.80;;;0.80;;
20727;SDS011;10525;50.154;8.198;2023-02-27T15:01:03;6.55;;;1.00;;
20727;SDS011;10525;50.154;8.198;2023-02-27T15:03:33;0.90;;;0.90;;
20727;SDS011;10525;50.154;8.198;2023-02-27T15:06:12;0.95;;;0.95;;
20727;SDS011;10525;50.154;8.198;2023-02-27T15:08:42;1.03;;;0.93;;
20727;SDS011;10525;50.154;8.198;2023-02-27T15:11:13;1.10;;;1.10;;
20727;SDS011;10525;50.154;8.198;2023-02-27T15:13:41;1.27;;;1.27;;
20727;SDS011;10525;50.154;8.198;2023-02-27T15:18:58;1.00;;;1.00;;
20727;SDS011;10525;50.154;8.198;2023-02-27T15:21:31;1.03;;;1.03;;
20727;SDS011;10525;50.154;8.198;2023-02-27T15:24:03;1.10;;;1.10;;
20727;SDS011;10525;50.154;8.198;2023-02-27T15:26:33;1.03;;;1.03;;
20727;SDS011;10525;50.154;8.198;2023-02-27T15:29:02;0.90;;;0.90;;
20727;SDS011;10525;50.154;8.198;2023-02-27T15:31:30;0.70;;;0.70;;
20727;SDS011;10525;50.154;8.198;2023-02-27T15:33:57;1.00;;;1.00;;
20727;SDS011;10525;50.154;8.198;2023-02-27T15:36:26;1.08;;;0.90;;
20727;SDS011;10525;50.154;8.198;2023-02-27T15:41:46;0.90;;;0.90;;